createdAt,value
2019-04-20T00:01:28.051Z,14.39
2019-04-20T00:03:55.625Z,14.41
2019-04-20T00:06:27.075Z,14.44
2019-04-20T00:09:04.957Z,14.40
2019-04-20T00:11:41.005Z,14.38
2019-04-20T00:14:10.329Z,14.41
2019-04-20T00:16:35.848Z,14.43
2019-04-20T00:19:07.697Z,14.63
2019-04-20T00:21:51.977Z,14.71
2019-04-20T00:24:26.884Z,14.68
2019-04-20T00:27:15.894Z,14.83
2019-04-20T00:29:46.376Z,14.78
2019-04-20T00:32:11.473Z,14.60
2019-04-20T00:34:36.459Z,14.85
2019-04-20T00:37:05.188Z,15.08
2019-04-20T00:39:38.287Z,15.15
2019-04-20T00:42:12.639Z,15.13
2019-04-20T00:44:45.477Z,15.03
2019-04-20T00:47:25.294Z,15.00
2019-04-20T00:49:58.658Z,14.88
2019-04-20T00:52:50.914Z,14.73
2019-04-20T00:54:52.285Z,14.87
2019-04-20T00:57:34.688Z,14.84
2019-04-20T01:00:16.428Z,14.87
2019-04-20T01:02:40.325Z,15.02
2019-04-20T01:05:20.206Z,14.95
2019-04-20T01:07:57.007Z,14.93
2019-04-20T01:10:30.319Z,14.91
2019-04-20T01:13:06.062Z,14.78
2019-04-20T01:15:40.665Z,14.63
2019-04-20T01:18:03.362Z,14.66
2019-04-20T01:20:34.186Z,14.54
2019-04-20T01:23:10.067Z,14.47
2019-04-20T01:25:40.914Z,14.62
2019-04-20T01:28:27.786Z,14.61
2019-04-20T01:30:55.093Z,14.64
2019-04-20T01:33:29.031Z,14.70
2019-04-20T01:36:03.543Z,14.69
2019-04-20T01:38:35.978Z,14.64
2019-04-20T01:40:53.010Z,14.75
2019-04-20T01:43:24.743Z,14.65
2019-04-20T01:46:03.309Z,14.62
2019-04-20T01:48:33.951Z,14.65
2019-04-20T01:51:07.355Z,14.76
2019-04-20T01:53:51.362Z,14.73
2019-04-20T01:56:24.378Z,14.71
2019-04-20T01:59:16.349Z,14.64
2019-04-20T02:02:03.196Z,14.69
2019-04-20T02:04:43.436Z,14.65
2019-04-20T02:07:12.001Z,14.56
2019-04-20T02:09:49.765Z,14.42
2019-04-20T02:12:21.898Z,14.36
2019-04-20T02:14:52.194Z,14.39
2019-04-20T02:17:29.845Z,14.39
2019-04-20T02:20:10.474Z,14.36
2019-04-20T02:22:45.259Z,14.23
2019-04-20T02:24:59.450Z,14.20
2019-04-20T02:27:40.637Z,14.21
2019-04-20T02:30:44.951Z,14.20
2019-04-20T02:33:34.759Z,14.15
2019-04-20T02:36:03.663Z,14.12
2019-04-20T02:41:28.337Z,13.95
2019-04-20T02:44:06.113Z,13.93
2019-04-20T02:46:24.674Z,14.01
2019-04-20T02:49:10.644Z,13.98
2019-04-20T02:51:37.106Z,14.21
2019-04-20T02:56:40.261Z,14.16
2019-04-20T02:59:42.263Z,14.14
2019-04-20T03:01:42.023Z,14.30
2019-04-20T03:03:58.100Z,14.26
2019-04-20T03:06:41.242Z,14.27
2019-04-20T03:09:19.887Z,14.23
2019-04-20T03:14:21.786Z,14.01
2019-04-20T03:16:56.725Z,13.85
2019-04-20T03:19:23.670Z,13.80
2019-04-20T03:22:09.245Z,13.83
2019-04-20T03:24:44.315Z,13.86
2019-04-20T03:27:07.109Z,13.80
2019-04-20T03:30:07.834Z,13.89
2019-04-20T03:35:22.522Z,13.85
2019-04-20T03:37:48.559Z,13.73
2019-04-20T03:40:12.792Z,13.75
2019-04-20T03:42:33.065Z,13.68
2019-04-20T03:45:09.725Z,13.55
2019-04-20T03:47:49.680Z,13.45
2019-04-20T03:50:35.563Z,13.32
2019-04-20T03:53:17.233Z,13.24
2019-04-20T03:55:51.334Z,13.06
2019-04-20T03:58:33.421Z,13.11
2019-04-20T04:01:32.872Z,13.21
2019-04-20T04:04:09.483Z,13.26
2019-04-20T04:06:33.524Z,13.19
2019-04-20T04:09:10.099Z,13.20
2019-04-20T04:11:43.547Z,13.19
2019-04-20T04:14:01.204Z,12.94
2019-04-20T04:16:37.440Z,12.77
2019-04-20T04:19:12.784Z,12.57
2019-04-20T04:21:56.049Z,12.42
2019-04-20T04:24:25.043Z,12.30
2019-04-20T04:26:58.898Z,12.25
2019-04-20T04:29:39.682Z,12.12
2019-04-20T04:32:25.558Z,12.00
2019-04-20T04:34:40.501Z,11.96
2019-04-20T04:37:19.059Z,11.83
2019-04-20T04:39:51.325Z,11.69
2019-04-20T04:42:32.343Z,11.55
2019-04-20T04:44:43.661Z,11.73
2019-04-20T04:47:08.369Z,11.62
2019-04-20T04:49:41.342Z,11.42
2019-04-20T04:52:15.741Z,11.31
2019-04-20T04:54:53.113Z,11.22
2019-04-20T04:57:15.919Z,11.08
2019-04-20T04:59:46.722Z,10.97
2019-04-20T05:02:17.934Z,10.83
2019-04-20T05:05:39.228Z,10.70
2019-04-20T05:07:58.510Z,10.62
2019-04-20T05:10:19.495Z,10.48
2019-04-20T05:12:53.112Z,10.52
2019-04-20T05:15:39.314Z,10.38
2019-04-20T05:18:16.183Z,10.31
2019-04-20T05:20:54.682Z,10.26
2019-04-20T05:23:28.006Z,10.25
2019-04-20T05:26:20.338Z,10.19
2019-04-20T05:28:46.106Z,10.20
2019-04-20T05:31:09.785Z,10.12
2019-04-20T05:34:02.360Z,10.11
2019-04-20T05:36:28.103Z,10.05
2019-04-20T05:39:16.119Z,10.15
2019-04-20T05:41:37.387Z,10.20
2019-04-20T05:44:44.262Z,10.34
2019-04-20T05:47:15.267Z,10.47
2019-04-20T05:49:40.336Z,10.62
2019-04-20T05:52:31.308Z,10.72
2019-04-20T05:54:50.835Z,10.97
2019-04-20T05:57:26.329Z,11.19
2019-04-20T06:00:02.181Z,11.32
2019-04-20T06:02:27.736Z,11.40
2019-04-20T06:05:11.390Z,11.44
2019-04-20T06:08:00.705Z,11.44
2019-04-20T06:10:52.274Z,11.53
2019-04-20T06:13:22.469Z,11.73
2019-04-20T06:16:03.959Z,12.07
2019-04-20T06:18:42.478Z,12.44
2019-04-20T06:21:32.333Z,12.65
2019-04-20T06:24:02.518Z,12.95
2019-04-20T06:26:51.908Z,13.44
2019-04-20T06:29:10.075Z,13.83
2019-04-20T06:31:45.889Z,13.85
2019-04-20T06:36:53.528Z,13.69
2019-04-20T06:39:48.877Z,13.64
2019-04-20T06:44:35.713Z,13.86
2019-04-20T06:47:24.702Z,14.12
2019-04-20T06:49:38.095Z,14.55
2019-04-20T06:55:02.852Z,16.06
2019-04-20T06:57:40.754Z,16.74
2019-04-20T07:00:15.811Z,16.85
2019-04-20T07:05:18.954Z,16.97
2019-04-20T07:07:56.378Z,17.22
2019-04-20T07:10:25.553Z,17.46
2019-04-20T07:12:49.317Z,17.54
2019-04-20T07:15:25.521Z,17.58
2019-04-20T07:18:09.444Z,17.67
2019-04-20T07:20:51.193Z,17.93
2019-04-20T07:23:31.212Z,18.06
2019-04-20T07:26:04.877Z,18.25
2019-04-20T07:28:43.606Z,18.27
2019-04-20T07:31:01.746Z,18.48
2019-04-20T07:33:39.356Z,18.49
2019-04-20T07:36:11.770Z,18.75
2019-04-20T07:38:46.578Z,18.86
2019-04-20T07:41:23.606Z,18.97
2019-04-20T07:43:59.047Z,18.98
2019-04-20T07:46:34.881Z,19.25
2019-04-20T07:48:54.290Z,19.39
2019-04-20T07:51:16.147Z,19.55
2019-04-20T07:53:59.507Z,19.57
2019-04-20T07:56:37.045Z,19.72
2019-04-20T07:58:52.398Z,19.75
2019-04-20T08:02:05.345Z,19.89
2019-04-20T08:04:32.402Z,19.80
2019-04-20T08:06:53.110Z,19.76
2019-04-20T08:09:28.858Z,19.87
2019-04-20T08:12:22.483Z,20.10
2019-04-20T08:14:55.382Z,20.35
2019-04-20T08:17:34.261Z,20.52
2019-04-20T08:19:50.918Z,20.47
2019-04-20T08:22:34.384Z,20.72
2019-04-20T08:24:55.311Z,20.77
2019-04-20T08:27:17.988Z,20.80
2019-04-20T08:30:21.557Z,21.03
2019-04-20T08:32:53.958Z,21.04
2019-04-20T08:35:31.897Z,21.07
2019-04-20T08:38:26.438Z,20.88
2019-04-20T08:40:43.587Z,21.09
2019-04-20T08:43:20.955Z,21.17
2019-04-20T08:45:48.761Z,21.24
2019-04-20T08:48:25.424Z,21.65
2019-04-20T08:50:51.862Z,21.73
2019-04-20T08:53:26.488Z,21.46
2019-04-20T08:55:50.102Z,21.39
2019-04-20T08:58:09.171Z,21.55
2019-04-20T09:00:48.687Z,21.58
2019-04-20T09:03:22.849Z,21.70
2019-04-20T09:05:57.767Z,21.93
2019-04-20T09:08:24.899Z,22.20
2019-04-20T09:11:10.260Z,22.40
2019-04-20T09:13:34.319Z,22.24
2019-04-20T09:15:58.019Z,22.43
2019-04-20T09:18:43.248Z,22.55
2019-04-20T09:21:13.668Z,22.37
2019-04-20T09:23:57.653Z,22.49
2019-04-20T09:26:32.451Z,22.33
2019-04-20T09:29:12.770Z,22.29
2019-04-20T09:31:39.247Z,22.44
2019-04-20T09:34:21.961Z,22.57
2019-04-20T09:37:22.441Z,22.71
2019-04-20T09:39:44.931Z,22.97
2019-04-20T09:42:31.542Z,23.15
2019-04-20T09:45:04.459Z,23.14
2019-04-20T09:47:41.936Z,23.22
2019-04-20T09:50:23.613Z,23.11
2019-04-20T09:52:57.036Z,23.46
2019-04-20T09:55:24.428Z,23.64
2019-04-20T09:58:01.071Z,23.36
2019-04-20T10:00:37.351Z,23.39
2019-04-20T10:02:52.621Z,23.68
2019-04-20T10:05:23.423Z,23.76
2019-04-20T10:07:58.645Z,23.77
2019-04-20T10:10:33.867Z,23.60
2019-04-20T10:13:00.534Z,24.09
2019-04-20T10:15:32.997Z,23.65
2019-04-20T10:18:03.880Z,23.85
2019-04-20T10:20:38.218Z,23.87
2019-04-20T10:23:07.062Z,24.11
2019-04-20T10:25:38.468Z,24.08
2019-04-20T10:28:09.585Z,23.96
2019-04-20T10:30:40.915Z,24.04
2019-04-20T10:33:13.349Z,24.23
2019-04-20T10:35:45.561Z,24.57
2019-04-20T10:38:32.121Z,24.45
2019-04-20T10:41:08.251Z,24.43
2019-04-20T10:43:33.426Z,24.36
2019-04-20T10:46:04.724Z,24.67
2019-04-20T10:48:40.234Z,24.65
2019-04-20T10:51:09.151Z,24.41
2019-04-20T10:53:40.425Z,24.41
2019-04-20T10:56:11.653Z,24.36
2019-04-20T10:58:43.382Z,24.66
2019-04-20T11:01:15.679Z,24.76
2019-04-20T11:03:46.898Z,24.63
2019-04-20T11:06:18.620Z,24.92
2019-04-20T11:08:50.758Z,24.83
2019-04-20T11:11:26.503Z,24.75
2019-04-20T11:13:55.339Z,25.00
2019-04-20T11:16:26.480Z,24.88
2019-04-20T11:18:57.786Z,25.00
2019-04-20T11:21:28.502Z,25.28
2019-04-20T11:24:00.385Z,25.30
2019-04-20T11:26:32.163Z,25.44
2019-04-20T11:29:06.418Z,25.35
2019-04-20T11:31:43.104Z,25.37
2019-04-20T11:34:10.388Z,25.34
2019-04-20T11:36:41.590Z,25.22
2019-04-20T11:39:14.579Z,25.40
2019-04-20T11:41:45.761Z,25.41
2019-04-20T11:44:17.815Z,25.43
2019-04-20T11:46:50.290Z,25.82
2019-04-20T11:49:21.634Z,25.94
2019-04-20T11:51:52.336Z,25.62
2019-04-20T11:54:24.343Z,25.34
2019-04-20T11:56:55.594Z,24.96
2019-04-20T11:59:27.410Z,25.25
2019-04-20T12:02:06.433Z,25.44
2019-04-20T12:04:54.356Z,25.32
2019-04-20T12:07:19.011Z,25.45
2019-04-20T12:09:51.489Z,25.40
2019-04-20T12:12:34.349Z,25.44
2019-04-20T12:14:56.698Z,25.52
2019-04-20T12:17:27.471Z,25.42
2019-04-20T12:19:59.780Z,25.45
2019-04-20T12:22:30.841Z,25.32
2019-04-20T12:25:02.569Z,25.08
2019-04-20T12:27:34.490Z,25.44
2019-04-20T12:30:06.235Z,25.69
2019-04-20T12:32:42.965Z,25.78
2019-04-20T12:35:09.968Z,26.16
2019-04-20T12:37:41.057Z,25.86
2019-04-20T12:40:12.245Z,25.59
2019-04-20T12:42:44.216Z,25.76
2019-04-20T12:45:15.700Z,25.76
2019-04-20T12:47:48.669Z,25.75
2019-04-20T12:50:19.681Z,25.37
2019-04-20T12:52:50.742Z,25.69
2019-04-20T12:55:22.815Z,25.52
2019-04-20T12:57:54.488Z,25.83
2019-04-20T13:00:41.359Z,25.50
2019-04-20T13:03:13.732Z,25.80
2019-04-20T13:05:45.878Z,25.57
2019-04-20T13:08:21.727Z,25.62
2019-04-20T13:11:06.936Z,25.93
2019-04-20T13:13:44.230Z,26.09
2019-04-20T13:16:28.126Z,26.18
2019-04-20T13:19:01.602Z,26.17
2019-04-20T13:21:32.497Z,25.89
2019-04-20T13:24:03.408Z,25.93
2019-04-20T13:26:35.168Z,26.05
2019-04-20T13:29:06.780Z,25.89
2019-04-20T13:31:37.984Z,26.34
2019-04-20T13:34:09.660Z,26.03
2019-04-20T13:36:41.900Z,26.16
2019-04-20T13:39:14.281Z,26.05
2019-04-20T13:41:58.809Z,26.47
2019-04-20T13:44:18.023Z,26.18
2019-04-20T13:46:49.244Z,26.16
2019-04-20T13:49:20.820Z,26.43
2019-04-20T13:51:52.828Z,26.23
2019-04-20T13:54:26.641Z,26.31
2019-04-20T13:56:57.517Z,26.41
2019-04-20T13:59:37.746Z,26.54
2019-04-20T14:02:33.100Z,26.19
2019-04-20T14:05:05.059Z,26.48
2019-04-20T14:07:37.575Z,26.23
2019-04-20T14:10:09.228Z,26.14
2019-04-20T14:12:53.344Z,26.05
2019-04-20T14:15:13.498Z,26.31
2019-04-20T14:17:44.476Z,26.27
2019-04-20T14:20:18.665Z,26.29
2019-04-20T14:22:49.175Z,26.23
2019-04-20T14:25:20.834Z,26.06
2019-04-20T14:27:52.898Z,26.25
2019-04-20T14:30:24.803Z,26.06
2019-04-20T14:32:56.804Z,26.15
2019-04-20T14:35:29.104Z,26.17
2019-04-20T14:38:00.121Z,25.93
2019-04-20T14:40:32.377Z,25.99
2019-04-20T14:43:03.562Z,25.49
2019-04-20T14:45:34.404Z,25.60
2019-04-20T14:48:05.775Z,25.84
2019-04-20T14:50:38.047Z,25.93
2019-04-20T14:53:11.937Z,26.08
2019-04-20T14:55:47.138Z,25.97
2019-04-20T14:58:42.181Z,25.94
2019-04-20T15:01:36.612Z,25.75
2019-04-20T15:04:17.761Z,25.64
2019-04-20T15:06:48.690Z,25.46
2019-04-20T15:09:26.705Z,25.47
2019-04-20T15:12:04.448Z,25.24
2019-04-20T15:14:44.778Z,25.33
2019-04-20T15:17:30.299Z,25.49
2019-04-20T15:20:30.424Z,25.66
2019-04-20T15:23:17.563Z,25.63
2019-04-20T15:25:50.650Z,25.56
2019-04-20T15:28:28.550Z,25.59
2019-04-20T15:31:06.397Z,25.55
2019-04-20T15:33:41.057Z,25.65
2019-04-20T15:36:17.987Z,25.74
2019-04-20T15:38:53.344Z,25.56
2019-04-20T15:41:29.308Z,25.71
2019-04-20T15:44:03.531Z,25.44
2019-04-20T15:46:38.263Z,25.28
2019-04-20T15:49:15.877Z,25.41
2019-04-20T15:51:49.959Z,25.59
2019-04-20T15:54:29.503Z,25.39
2019-04-20T15:57:12.744Z,25.41
2019-04-20T15:59:42.234Z,25.36
2019-04-20T16:02:29.708Z,25.25
2019-04-20T16:05:12.341Z,25.22
2019-04-20T16:07:54.496Z,25.33
2019-04-20T16:10:23.320Z,25.19
2019-04-20T16:13:11.833Z,25.16
2019-04-20T16:15:35.853Z,25.14
2019-04-20T16:18:10.240Z,25.10
2019-04-20T16:20:50.714Z,24.99
2019-04-20T16:23:21.060Z,25.20
2019-04-20T16:26:21.772Z,25.10
2019-04-20T16:28:57.631Z,24.83
2019-04-20T16:31:36.344Z,24.85
2019-04-20T16:34:13.735Z,24.78
2019-04-20T16:36:53.001Z,24.68
2019-04-20T16:39:28.267Z,24.65
2019-04-20T16:42:02.441Z,24.57
2019-04-20T16:44:38.894Z,24.68
2019-04-20T16:47:12.357Z,24.57
2019-04-20T16:49:46.941Z,24.41
2019-04-20T16:52:26.385Z,24.35
2019-04-20T16:55:02.163Z,24.23
2019-04-20T16:57:37.324Z,24.28
2019-04-20T17:00:15.642Z,24.26
2019-04-20T17:02:54.290Z,24.40
2019-04-20T17:05:33.236Z,24.00
2019-04-20T17:08:15.172Z,23.61
2019-04-20T17:10:51.692Z,23.23
2019-04-20T17:13:36.694Z,23.14
2019-04-20T17:16:15.653Z,22.97
2019-04-20T17:18:53.192Z,22.58
2019-04-20T17:21:30.665Z,22.38
2019-04-20T17:24:09.086Z,22.33
2019-04-20T17:26:53.101Z,22.17
2019-04-20T17:29:30.217Z,21.93
2019-04-20T17:32:09.813Z,21.61
2019-04-20T17:34:57.859Z,21.43
2019-04-20T17:37:16.659Z,21.33
2019-04-20T17:40:11.220Z,21.17
2019-04-20T17:42:50.796Z,20.96
2019-04-20T17:45:28.585Z,20.57
2019-04-20T17:48:14.616Z,20.23
2019-04-20T17:50:55.978Z,19.96
2019-04-20T17:53:24.026Z,19.65
2019-04-20T17:55:50.028Z,19.44
2019-04-20T17:58:27.960Z,19.22
2019-04-20T18:01:23.998Z,18.98
2019-04-20T18:04:10.777Z,18.72
2019-04-20T18:06:34.873Z,18.47
2019-04-20T18:09:05.341Z,18.27
2019-04-20T18:11:25.665Z,18.04
2019-04-20T18:14:04.262Z,17.84
2019-04-20T18:16:50.861Z,17.66
2019-04-20T18:19:21.735Z,17.40
2019-04-20T18:22:13.983Z,17.23
2019-04-20T18:25:08.236Z,17.04
2019-04-20T18:27:37.563Z,16.77
2019-04-20T18:30:07.097Z,16.59
2019-04-20T18:32:27.498Z,16.41
2019-04-20T18:35:04.756Z,16.26
2019-04-20T18:37:34.436Z,16.03
2019-04-20T18:40:11.384Z,15.86
2019-04-20T18:42:43.483Z,15.66
2019-04-20T18:45:28.408Z,15.56
2019-04-20T18:48:03.942Z,15.38
2019-04-20T18:50:24.533Z,15.23
2019-04-20T18:52:49.841Z,15.16
2019-04-20T18:55:30.192Z,15.02
2019-04-20T18:57:55.108Z,14.91
2019-04-20T19:00:31.909Z,14.82
2019-04-20T19:03:09.693Z,14.65
2019-04-20T19:05:31.672Z,14.51
2019-04-20T19:08:06.612Z,14.43
2019-04-20T19:10:39.619Z,14.32
2019-04-20T19:13:37.602Z,14.19
2019-04-20T19:16:32.551Z,14.12
2019-04-20T19:19:16.370Z,14.01
2019-04-20T19:21:35.290Z,13.98
2019-04-20T19:24:12.172Z,13.96
2019-04-20T19:26:44.967Z,13.87
2019-04-20T19:29:22.419Z,13.86
2019-04-20T19:32:06.034Z,13.78
2019-04-20T19:34:33.543Z,13.67
2019-04-20T19:37:05.049Z,13.58
2019-04-20T19:39:40.232Z,13.57
2019-04-20T19:42:08.597Z,13.52
2019-04-20T19:44:44.948Z,13.44
2019-04-20T19:47:21.343Z,13.41
2019-04-20T19:49:44.138Z,13.30
2019-04-20T19:52:36.501Z,13.24
2019-04-20T19:54:54.932Z,13.21
2019-04-20T19:57:32.011Z,13.18
2019-04-20T19:59:49.647Z,13.13
2019-04-20T20:02:18.055Z,13.09
2019-04-20T20:04:53.607Z,13.05
2019-04-20T20:07:29.884Z,13.01
2019-04-20T20:09:58.415Z,12.97
2019-04-20T20:12:27.450Z,12.92
2019-04-20T20:14:59.551Z,12.90
2019-04-20T20:17:48.107Z,12.84
2019-04-20T20:20:26.318Z,12.76
2019-04-20T20:22:41.162Z,12.73
2019-04-20T20:25:09.668Z,12.65
2019-04-20T20:27:49.201Z,12.67
2019-04-20T20:30:23.341Z,12.61
2019-04-20T20:33:07.046Z,12.62
2019-04-20T20:35:25.041Z,12.61
2019-04-20T20:37:56.968Z,12.64
2019-04-20T20:40:29.862Z,12.58
2019-04-20T20:43:07.441Z,12.69
2019-04-20T20:45:33.577Z,12.73
2019-04-20T20:48:15.817Z,12.86
2019-04-20T20:50:56.143Z,13.03
2019-04-20T20:53:16.335Z,13.22
2019-04-20T20:55:44.342Z,13.30
2019-04-20T20:58:18.114Z,13.25
2019-04-20T21:00:54.106Z,13.20
2019-04-20T21:03:24.720Z,13.13
2019-04-20T21:05:51.582Z,13.10
2019-04-20T21:08:23.903Z,12.93
2019-04-20T21:10:54.927Z,12.87
2019-04-20T21:13:34.520Z,12.96
2019-04-20T21:16:03.950Z,13.24
2019-04-20T21:18:50.452Z,13.56
2019-04-20T21:21:19.158Z,13.79
2019-04-20T21:23:48.091Z,13.84
2019-04-20T21:26:17.794Z,13.75
2019-04-20T21:28:43.921Z,13.62
2019-04-20T21:31:21.694Z,13.46
2019-04-20T21:33:47.400Z,13.28
2019-04-20T21:36:24.139Z,13.11
2019-04-20T21:38:51.830Z,13.17
2019-04-20T21:41:25.359Z,13.42
2019-04-20T21:43:56.046Z,13.57
2019-04-20T21:46:31.922Z,13.61
2019-04-20T21:49:11.940Z,13.61
2019-04-20T21:51:44.142Z,13.70
2019-04-20T21:54:05.561Z,13.62
2019-04-20T21:56:48.794Z,13.63
2019-04-20T21:59:18.882Z,13.55
2019-04-20T22:01:57.766Z,13.50
2019-04-20T22:04:16.705Z,13.49
2019-04-20T22:06:50.126Z,13.48
2019-04-20T22:09:25.084Z,13.39
2019-04-20T22:11:56.077Z,13.43
2019-04-20T22:14:31.563Z,13.49
2019-04-20T22:17:02.230Z,13.50
2019-04-20T22:19:41.941Z,13.45
2019-04-20T22:22:16.142Z,13.41
2019-04-20T22:24:50.541Z,13.44
2019-04-20T22:27:20.122Z,13.41
2019-04-20T22:29:44.041Z,13.37
2019-04-20T22:32:17.274Z,13.40
2019-04-20T22:34:57.149Z,13.43
2019-04-20T22:37:27.001Z,13.45
2019-04-20T22:39:57.690Z,13.42
2019-04-20T22:42:31.284Z,13.61
2019-04-20T22:45:05.270Z,13.62
2019-04-20T22:47:33.998Z,13.79
2019-04-20T22:50:21.973Z,13.79
2019-04-20T22:52:48.698Z,13.93
2019-04-20T22:55:38.995Z,14.31
2019-04-20T22:57:53.829Z,14.47
2019-04-20T23:00:31.249Z,14.59
2019-04-20T23:02:49.560Z,14.70
2019-04-20T23:05:22.795Z,14.85
2019-04-20T23:07:54.727Z,15.18
2019-04-20T23:10:34.034Z,15.20
2019-04-20T23:12:59.694Z,15.12
2019-04-20T23:15:32.267Z,15.16
2019-04-20T23:18:04.295Z,15.20
2019-04-20T23:20:38.459Z,15.31
2019-04-20T23:23:11.000Z,15.30
2019-04-20T23:25:40.960Z,15.22
2019-04-20T23:28:14.766Z,15.00
2019-04-20T23:30:45.784Z,15.21
2019-04-20T23:33:18.028Z,15.20
2019-04-20T23:35:54.586Z,15.03
2019-04-20T23:38:24.586Z,15.12
2019-04-20T23:40:55.603Z,14.99
2019-04-20T23:43:33.684Z,14.95
2019-04-20T23:46:26.506Z,14.98
2019-04-20T23:49:20.015Z,15.04
2019-04-20T23:52:05.486Z,15.02
2019-04-20T23:54:23.648Z,14.81
2019-04-20T23:56:51.177Z,14.71
2019-04-20T23:59:27.765Z,14.70
